Terminal Aerodrome Forecast
Issued by NWS Nashville, TN

Home | Current Version | Previous Version | Text Only | Print | Product List | Glossary On
Versions: 1 2 3 4 5 6 7 8 9 10 11 12 13 14 15 16 17 18 19 20 21 22 23 24 25
000
FTUS44 KOHX 020800 AAB
TAFBNA
TAF AMD
KBNA 020816Z 0208/0306 33006KT 6SM BR OVC006
      TEMPO 0208/0211 3SM BR
     FM021100 35003KT 3SM BR OVC005
     FM021600 01005KT 6SM BR OVC011
     FM021900 01007KT P6SM OVC025
     FM022300 01003KT P6SM OVC050=

USA.gov is the U.S. government's official web portal to all federal, state and local government web resources and services.